sensor_id;sensor_type;location;lat;lon;timestamp;P1;durP1;ratioP1;P2;durP2;ratioP2
26908;SDS011;14477;51.038;4.588;2022-09-27T00:00:25;0.60;;;0.50;;
26908;SDS011;14477;51.038;4.588;2022-09-27T00:02:51;1.87;;;0.50;;
26908;SDS011;14477;51.038;4.588;2022-09-27T00:05:16;2.93;;;0.60;;
26908;SDS011;14477;51.038;4.588;2022-09-27T00:07:43;0.70;;;0.50;;
26908;SDS011;14477;51.038;4.588;2022-09-27T00:10:09;0.85;;;0.50;;
26908;SDS011;14477;51.038;4.588;2022-09-27T00:12:36;0.75;;;0.43;;
26908;SDS011;14477;51.038;4.588;2022-09-27T00:15:02;1.45;;;0.43;;
26908;SDS011;14477;51.038;4.588;2022-09-27T00:17:28;0.57;;;0.40;;
26908;SDS011;14477;51.038;4.588;2022-09-27T00:19:54;0.50;;;0.50;;
26908;SDS011;14477;51.038;4.588;2022-09-27T00:22:23;1.08;;;0.50;;
26908;SDS011;14477;51.038;4.588;2022-09-27T00:24:49;0.68;;;0.50;;
26908;SDS011;14477;51.038;4.588;2022-09-27T00:27:15;1.52;;;0.73;;
26908;SDS011;14477;51.038;4.588;2022-09-27T00:29:42;1.33;;;0.60;;
26908;SDS011;14477;51.038;4.588;2022-09-27T00:32:07;1.50;;;0.45;;
26908;SDS011;14477;51.038;4.588;2022-09-27T00:34:33;1.67;;;0.70;;
26908;SDS011;14477;51.038;4.588;2022-09-27T00:36:59;2.20;;;0.77;;
26908;SDS011;14477;51.038;4.588;2022-09-27T00:39:24;1.25;;;0.60;;
26908;SDS011;14477;51.038;4.588;2022-09-27T00:41:50;1.43;;;0.50;;
26908;SDS011;14477;51.038;4.588;2022-09-27T00:49:42;1.25;;;0.63;;
26908;SDS011;14477;51.038;4.588;2022-09-27T00:52:10;2.63;;;0.70;;
26908;SDS011;14477;51.038;4.588;2022-09-27T00:54:45;1.02;;;0.70;;
26908;SDS011;14477;51.038;4.588;2022-09-27T00:57:15;2.63;;;0.97;;
26908;SDS011;14477;51.038;4.588;2022-09-27T00:59:43;1.90;;;0.73;;
26908;SDS011;14477;51.038;4.588;2022-09-27T01:02:12;1.75;;;0.70;;
26908;SDS011;14477;51.038;4.588;2022-09-27T01:04:38;1.98;;;0.70;;
26908;SDS011;14477;51.038;4.588;2022-09-27T01:07:06;2.08;;;0.80;;
26908;SDS011;14477;51.038;4.588;2022-09-27T01:09:32;2.77;;;0.63;;
26908;SDS011;14477;51.038;4.588;2022-09-27T01:14:59;2.15;;;0.73;;
26908;SDS011;14477;51.038;4.588;2022-09-27T01:28:57;0.85;;;0.40;;
26908;SDS011;14477;51.038;4.588;2022-09-27T01:31:31;1.07;;;0.43;;
26908;SDS011;14477;51.038;4.588;2022-09-27T01:36:42;0.77;;;0.30;;
26908;SDS011;14477;51.038;4.588;2022-09-27T01:42:20;1.33;;;0.40;;
26908;SDS011;14477;51.038;4.588;2022-09-27T01:47:51;0.73;;;0.40;;
26908;SDS011;14477;51.038;4.588;2022-09-27T01:50:34;0.80;;;0.40;;
26908;SDS011;14477;51.038;4.588;2022-09-27T01:53:06;1.63;;;0.50;;
26908;SDS011;14477;51.038;4.588;2022-09-27T01:55:36;2.20;;;0.50;;
26908;SDS011;14477;51.038;4.588;2022-09-27T02:01:19;1.23;;;0.47;;
26908;SDS011;14477;51.038;4.588;2022-09-27T02:03:48;0.43;;;0.40;;
26908;SDS011;14477;51.038;4.588;2022-09-27T02:06:26;1.02;;;0.40;;
26908;SDS011;14477;51.038;4.588;2022-09-27T02:09:09;1.98;;;0.40;;
26908;SDS011;14477;51.038;4.588;2022-09-27T02:12:04;1.13;;;0.37;;
26908;SDS011;14477;51.038;4.588;2022-09-27T02:14:44;1.08;;;0.40;;
26908;SDS011;14477;51.038;4.588;2022-09-27T02:17:29;1.25;;;0.38;;
26908;SDS011;14477;51.038;4.588;2022-09-27T02:20:36;0.60;;;0.40;;
26908;SDS011;14477;51.038;4.588;2022-09-27T02:25:42;1.00;;;0.40;;
26908;SDS011;14477;51.038;4.588;2022-09-27T02:28:21;0.68;;;0.40;;
26908;SDS011;14477;51.038;4.588;2022-09-27T02:30:54;0.50;;;0.30;;
26908;SDS011;14477;51.038;4.588;2022-09-27T02:33:22;0.50;;;0.40;;
26908;SDS011;14477;51.038;4.588;2022-09-27T02:35:50;0.70;;;0.40;;
26908;SDS011;14477;51.038;4.588;2022-09-27T02:38:16;0.43;;;0.30;;
26908;SDS011;14477;51.038;4.588;2022-09-27T02:40:44;1.10;;;0.40;;
26908;SDS011;14477;51.038;4.588;2022-09-27T02:43:11;0.40;;;0.30;;
26908;SDS011;14477;51.038;4.588;2022-09-27T02:57:09;1.17;;;0.35;;
26908;SDS011;14477;51.038;4.588;2022-09-27T02:59:53;0.43;;;0.30;;
26908;SDS011;14477;51.038;4.588;2022-09-27T03:02:57;0.30;;;0.30;;
26908;SDS011;14477;51.038;4.588;2022-09-27T03:05:38;0.57;;;0.30;;
26908;SDS011;14477;51.038;4.588;2022-09-27T03:08:26;0.52;;;0.35;;
26908;SDS011;14477;51.038;4.588;2022-09-27T03:10:52;0.85;;;0.30;;
26908;SDS011;14477;51.038;4.588;2022-09-27T03:13:20;0.83;;;0.40;;
26908;SDS011;14477;51.038;4.588;2022-09-27T03:15:46;0.60;;;0.30;;
26908;SDS011;14477;51.038;4.588;2022-09-27T03:18:11;0.43;;;0.30;;
26908;SDS011;14477;51.038;4.588;2022-09-27T03:20:37;0.30;;;0.30;;
26908;SDS011;14477;51.038;4.588;2022-09-27T03:23:02;0.40;;;0.30;;
26908;SDS011;14477;51.038;4.588;2022-09-27T03:25:28;0.30;;;0.30;;
26908;SDS011;14477;51.038;4.588;2022-09-27T03:27:54;0.82;;;0.30;;
26908;SDS011;14477;51.038;4.588;2022-09-27T03:30:19;0.53;;;0.40;;
26908;SDS011;14477;51.038;4.588;2022-09-27T03:32:45;0.30;;;0.25;;
26908;SDS011;14477;51.038;4.588;2022-09-27T03:35:11;0.43;;;0.30;;
26908;SDS011;14477;51.038;4.588;2022-09-27T03:37:37;0.40;;;0.30;;
26908;SDS011;14477;51.038;4.588;2022-09-27T03:40:04;0.40;;;0.40;;
26908;SDS011;14477;51.038;4.588;2022-09-27T03:42:29;0.70;;;0.40;;
26908;SDS011;14477;51.038;4.588;2022-09-27T03:44:55;0.70;;;0.23;;
26908;SDS011;14477;51.038;4.588;2022-09-27T03:47:21;0.40;;;0.30;;
26908;SDS011;14477;51.038;4.588;2022-09-27T03:49:47;0.90;;;0.33;;
26908;SDS011;14477;51.038;4.588;2022-09-27T03:52:13;0.40;;;0.30;;
26908;SDS011;14477;51.038;4.588;2022-09-27T03:54:39;0.38;;;0.30;;
26908;SDS011;14477;51.038;4.588;2022-09-27T03:57:04;0.57;;;0.30;;
26908;SDS011;14477;51.038;4.588;2022-09-27T03:59:30;0.50;;;0.35;;
26908;SDS011;14477;51.038;4.588;2022-09-27T04:01:55;0.30;;;0.30;;
26908;SDS011;14477;51.038;4.588;2022-09-27T04:04:21;0.30;;;0.30;;
26908;SDS011;14477;51.038;4.588;2022-09-27T04:06:47;0.35;;;0.30;;
26908;SDS011;14477;51.038;4.588;2022-09-27T04:09:13;0.40;;;0.40;;
26908;SDS011;14477;51.038;4.588;2022-09-27T04:11:38;0.60;;;0.30;;
26908;SDS011;14477;51.038;4.588;2022-09-27T04:14:04;0.30;;;0.28;;
26908;SDS011;14477;51.038;4.588;2022-09-27T04:16:30;0.50;;;0.30;;
26908;SDS011;14477;51.038;4.588;2022-09-27T04:18:56;0.95;;;0.40;;
26908;SDS011;14477;51.038;4.588;2022-09-27T04:21:22;4.13;;;0.40;;
26908;SDS011;14477;51.038;4.588;2022-09-27T04:23:48;0.52;;;0.40;;
26908;SDS011;14477;51.038;4.588;2022-09-27T04:26:13;1.17;;;0.63;;
26908;SDS011;14477;51.038;4.588;2022-09-27T04:28:39;0.65;;;0.40;;
26908;SDS011;14477;51.038;4.588;2022-09-27T04:31:05;0.87;;;0.40;;
26908;SDS011;14477;51.038;4.588;2022-09-27T04:33:30;0.57;;;0.40;;
26908;SDS011;14477;51.038;4.588;2022-09-27T04:35:56;1.30;;;0.53;;
26908;SDS011;14477;51.038;4.588;2022-09-27T04:38:40;0.90;;;0.45;;
26908;SDS011;14477;51.038;4.588;2022-09-27T04:41:05;0.40;;;0.40;;
26908;SDS011;14477;51.038;4.588;2022-09-27T04:43:31;0.68;;;0.50;;
26908;SDS011;14477;51.038;4.588;2022-09-27T04:45:57;0.40;;;0.37;;
26908;SDS011;14477;51.038;4.588;2022-09-27T04:48:24;0.75;;;0.50;;
26908;SDS011;14477;51.038;4.588;2022-09-27T04:50:59;0.77;;;0.50;;
26908;SDS011;14477;51.038;4.588;2022-09-27T04:53:29;1.33;;;0.57;;
26908;SDS011;14477;51.038;4.588;2022-09-27T04:55:55;0.60;;;0.50;;
26908;SDS011;14477;51.038;4.588;2022-09-27T04:58:21;1.23;;;0.60;;
26908;SDS011;14477;51.038;4.588;2022-09-27T05:00:47;2.08;;;0.85;;
26908;SDS011;14477;51.038;4.588;2022-09-27T05:03:16;0.83;;;0.60;;
26908;SDS011;14477;51.038;4.588;2022-09-27T05:05:43;0.88;;;0.50;;
26908;SDS011;14477;51.038;4.588;2022-09-27T05:08:12;0.88;;;0.60;;
26908;SDS011;14477;51.038;4.588;2022-09-27T05:10:38;1.23;;;0.65;;
26908;SDS011;14477;51.038;4.588;2022-09-27T05:13:04;0.73;;;0.57;;
26908;SDS011;14477;51.038;4.588;2022-09-27T05:15:30;0.80;;;0.60;;
26908;SDS011;14477;51.038;4.588;2022-09-27T05:17:56;1.27;;;0.70;;
26908;SDS011;14477;51.038;4.588;2022-09-27T05:20:22;6.03;;;0.80;;
26908;SDS011;14477;51.038;4.588;2022-09-27T05:22:49;0.95;;;0.60;;
26908;SDS011;14477;51.038;4.588;2022-09-27T05:25:15;1.65;;;0.90;;
26908;SDS011;14477;51.038;4.588;2022-09-27T05:27:41;8.48;;;3.83;;
26908;SDS011;14477;51.038;4.588;2022-09-27T05:30:07;7.03;;;2.60;;
26908;SDS011;14477;51.038;4.588;2022-09-27T05:32:33;5.07;;;1.88;;
26908;SDS011;14477;51.038;4.588;2022-09-27T05:34:59;2.97;;;1.30;;
26908;SDS011;14477;51.038;4.588;2022-09-27T05:37:25;2.87;;;1.20;;
26908;SDS011;14477;51.038;4.588;2022-09-27T05:39:50;3.00;;;1.20;;
26908;SDS011;14477;51.038;4.588;2022-09-27T05:42:16;2.03;;;1.02;;
26908;SDS011;14477;51.038;4.588;2022-09-27T05:44:43;2.30;;;1.13;;
26908;SDS011;14477;51.038;4.588;2022-09-27T05:47:12;1.92;;;1.10;;
26908;SDS011;14477;51.038;4.588;2022-09-27T05:49:39;1.77;;;1.10;;
26908;SDS011;14477;51.038;4.588;2022-09-27T05:52:05;4.30;;;1.98;;
26908;SDS011;14477;51.038;4.588;2022-09-27T05:54:31;1.48;;;0.90;;
26908;SDS011;14477;51.038;4.588;2022-09-27T05:56:57;1.97;;;1.23;;
26908;SDS011;14477;51.038;4.588;2022-09-27T05:59:26;2.95;;;1.10;;
26908;SDS011;14477;51.038;4.588;2022-09-27T06:01:52;1.95;;;1.20;;
26908;SDS011;14477;51.038;4.588;2022-09-27T06:04:18;2.17;;;1.30;;
26908;SDS011;14477;51.038;4.588;2022-09-27T06:06:45;1.95;;;1.23;;
26908;SDS011;14477;51.038;4.588;2022-09-27T06:09:12;1.80;;;1.13;;
26908;SDS011;14477;51.038;4.588;2022-09-27T06:11:38;2.10;;;1.20;;
26908;SDS011;14477;51.038;4.588;2022-09-27T06:14:04;1.70;;;0.95;;
26908;SDS011;14477;51.038;4.588;2022-09-27T06:16:30;1.83;;;1.30;;
26908;SDS011;14477;51.038;4.588;2022-09-27T06:18:55;1.83;;;1.15;;
26908;SDS011;14477;51.038;4.588;2022-09-27T06:21:22;2.20;;;1.50;;
26908;SDS011;14477;51.038;4.588;2022-09-27T06:23:48;1.83;;;1.30;;
26908;SDS011;14477;51.038;4.588;2022-09-27T06:26:14;4.78;;;2.22;;
26908;SDS011;14477;51.038;4.588;2022-09-27T06:28:40;7.05;;;3.40;;
26908;SDS011;14477;51.038;4.588;2022-09-27T06:31:06;6.23;;;3.30;;
26908;SDS011;14477;51.038;4.588;2022-09-27T06:33:33;6.63;;;2.78;;
26908;SDS011;14477;51.038;4.588;2022-09-27T06:36:00;5.88;;;2.83;;
26908;SDS011;14477;51.038;4.588;2022-09-27T06:38:26;4.75;;;2.50;;
26908;SDS011;14477;51.038;4.588;2022-09-27T06:40:52;3.47;;;1.63;;
26908;SDS011;14477;51.038;4.588;2022-09-27T06:43:18;2.73;;;1.50;;
26908;SDS011;14477;51.038;4.588;2022-09-27T06:45:45;2.13;;;1.50;;
26908;SDS011;14477;51.038;4.588;2022-09-27T06:48:12;3.10;;;1.40;;
26908;SDS011;14477;51.038;4.588;2022-09-27T06:50:40;2.58;;;1.42;;
26908;SDS011;14477;51.038;4.588;2022-09-27T06:53:08;2.35;;;1.27;;
26908;SDS011;14477;51.038;4.588;2022-09-27T06:55:36;2.10;;;1.20;;
26908;SDS011;14477;51.038;4.588;2022-09-27T06:58:02;1.80;;;1.20;;
26908;SDS011;14477;51.038;4.588;2022-09-27T07:00:48;2.67;;;1.30;;
26908;SDS011;14477;51.038;4.588;2022-09-27T07:03:15;2.05;;;1.30;;
26908;SDS011;14477;51.038;4.588;2022-09-27T07:05:41;1.60;;;1.20;;
26908;SDS011;14477;51.038;4.588;2022-09-27T07:08:07;2.17;;;1.38;;
26908;SDS011;14477;51.038;4.588;2022-09-27T07:10:36;1.50;;;1.20;;
26908;SDS011;14477;51.038;4.588;2022-09-27T07:13:06;3.20;;;1.77;;
26908;SDS011;14477;51.038;4.588;2022-09-27T07:15:33;2.17;;;1.42;;
26908;SDS011;14477;51.038;4.588;2022-09-27T07:18:03;1.80;;;1.05;;
26908;SDS011;14477;51.038;4.588;2022-09-27T07:20:31;1.50;;;1.20;;
26908;SDS011;14477;51.038;4.588;2022-09-27T07:22:57;2.03;;;1.10;;
26908;SDS011;14477;51.038;4.588;2022-09-27T07:25:23;1.57;;;1.07;;
26908;SDS011;14477;51.038;4.588;2022-09-27T07:27:49;2.42;;;1.30;;
26908;SDS011;14477;51.038;4.588;2022-09-27T07:30:16;1.40;;;1.15;;
26908;SDS011;14477;51.038;4.588;2022-09-27T07:32:43;1.80;;;1.30;;
26908;SDS011;14477;51.038;4.588;2022-09-27T07:35:09;1.87;;;1.27;;
26908;SDS011;14477;51.038;4.588;2022-09-27T07:37:35;1.70;;;1.20;;
26908;SDS011;14477;51.038;4.588;2022-09-27T07:40:03;3.33;;;1.30;;
26908;SDS011;14477;51.038;4.588;2022-09-27T07:42:31;2.10;;;1.23;;
26908;SDS011;14477;51.038;4.588;2022-09-27T07:44:57;2.03;;;1.20;;
26908;SDS011;14477;51.038;4.588;2022-09-27T07:47:24;3.07;;;1.30;;
26908;SDS011;14477;51.038;4.588;2022-09-27T07:49:50;2.25;;;1.33;;
26908;SDS011;14477;51.038;4.588;2022-09-27T07:52:16;1.98;;;1.20;;
26908;SDS011;14477;51.038;4.588;2022-09-27T07:54:43;1.95;;;1.30;;
26908;SDS011;14477;51.038;4.588;2022-09-27T07:57:09;2.58;;;1.30;;
26908;SDS011;14477;51.038;4.588;2022-09-27T07:59:35;2.70;;;1.40;;
26908;SDS011;14477;51.038;4.588;2022-09-27T08:02:01;2.80;;;1.58;;
26908;SDS011;14477;51.038;4.588;2022-09-27T08:04:26;2.50;;;1.43;;
26908;SDS011;14477;51.038;4.588;2022-09-27T08:06:53;1.98;;;1.50;;
26908;SDS011;14477;51.038;4.588;2022-09-27T08:09:19;2.83;;;1.73;;
26908;SDS011;14477;51.038;4.588;2022-09-27T08:11:45;2.90;;;1.50;;
26908;SDS011;14477;51.038;4.588;2022-09-27T08:14:10;1.92;;;1.63;;
26908;SDS011;14477;51.038;4.588;2022-09-27T08:16:37;2.15;;;1.40;;
26908;SDS011;14477;51.038;4.588;2022-09-27T08:19:03;2.50;;;1.60;;
26908;SDS011;14477;51.038;4.588;2022-09-27T08:21:28;2.47;;;1.70;;
26908;SDS011;14477;51.038;4.588;2022-09-27T08:23:55;1.70;;;1.40;;
26908;SDS011;14477;51.038;4.588;2022-09-27T08:26:21;2.08;;;1.23;;
26908;SDS011;14477;51.038;4.588;2022-09-27T08:28:47;1.52;;;1.30;;
26908;SDS011;14477;51.038;4.588;2022-09-27T08:31:13;1.73;;;1.17;;
26908;SDS011;14477;51.038;4.588;2022-09-27T08:33:38;2.05;;;1.30;;
26908;SDS011;14477;51.038;4.588;2022-09-27T08:36:09;2.30;;;1.40;;
26908;SDS011;14477;51.038;4.588;2022-09-27T08:38:36;1.35;;;1.25;;
26908;SDS011;14477;51.038;4.588;2022-09-27T08:41:05;1.85;;;1.17;;
26908;SDS011;14477;51.038;4.588;2022-09-27T08:43:48;1.70;;;1.27;;
26908;SDS011;14477;51.038;4.588;2022-09-27T08:49:22;1.17;;;0.95;;
26908;SDS011;14477;51.038;4.588;2022-09-27T08:51:55;1.73;;;1.00;;
26908;SDS011;14477;51.038;4.588;2022-09-27T08:54:25;2.15;;;1.10;;
26908;SDS011;14477;51.038;4.588;2022-09-27T08:56:56;2.17;;;1.20;;
26908;SDS011;14477;51.038;4.588;2022-09-27T09:00:19;2.95;;;1.00;;
26908;SDS011;14477;51.038;4.588;2022-09-27T09:02:28;1.27;;;1.00;;
26908;SDS011;14477;51.038;4.588;2022-09-27T09:04:59;1.75;;;1.10;;
26908;SDS011;14477;51.038;4.588;2022-09-27T09:07:53;1.80;;;1.10;;
26908;SDS011;14477;51.038;4.588;2022-09-27T09:13:44;1.20;;;0.90;;
26908;SDS011;14477;51.038;4.588;2022-09-27T09:16:33;1.98;;;1.13;;
26908;SDS011;14477;51.038;4.588;2022-09-27T09:27:49;2.08;;;0.95;;
26908;SDS011;14477;51.038;4.588;2022-09-27T09:30:24;1.50;;;0.80;;
26908;SDS011;14477;51.038;4.588;2022-09-27T09:38:38;1.40;;;0.80;;
26908;SDS011;14477;51.038;4.588;2022-09-27T09:41:37;1.83;;;0.98;;
26908;SDS011;14477;51.038;4.588;2022-09-27T09:44:16;1.08;;;0.90;;
26908;SDS011;14477;51.038;4.588;2022-09-27T09:46:47;1.50;;;0.80;;
26908;SDS011;14477;51.038;4.588;2022-09-27T09:49:38;1.43;;;1.00;;
26908;SDS011;14477;51.038;4.588;2022-09-27T09:52:12;1.13;;;1.00;;
26908;SDS011;14477;51.038;4.588;2022-09-27T09:57:37;1.00;;;0.80;;
26908;SDS011;14477;51.038;4.588;2022-09-27T10:00:14;2.10;;;1.10;;
26908;SDS011;14477;51.038;4.588;2022-09-27T10:02:43;2.90;;;0.93;;
26908;SDS011;14477;51.038;4.588;2022-09-27T10:05:12;2.03;;;1.00;;
26908;SDS011;14477;51.038;4.588;2022-09-27T10:07:40;1.42;;;1.10;;
26908;SDS011;14477;51.038;4.588;2022-09-27T10:10:07;3.22;;;1.00;;
26908;SDS011;14477;51.038;4.588;2022-09-27T10:12:37;1.73;;;1.02;;
26908;SDS011;14477;51.038;4.588;2022-09-27T10:15:03;2.87;;;1.03;;
26908;SDS011;14477;51.038;4.588;2022-09-27T10:17:37;1.00;;;0.88;;
26908;SDS011;14477;51.038;4.588;2022-09-27T10:20:07;2.33;;;1.08;;
26908;SDS011;14477;51.038;4.588;2022-09-27T10:22:52;1.90;;;0.90;;
26908;SDS011;14477;51.038;4.588;2022-09-27T10:25:20;2.63;;;1.05;;
26908;SDS011;14477;51.038;4.588;2022-09-27T10:27:47;3.33;;;1.00;;
26908;SDS011;14477;51.038;4.588;2022-09-27T10:30:32;2.38;;;1.20;;
26908;SDS011;14477;51.038;4.588;2022-09-27T10:32:59;2.17;;;0.87;;
26908;SDS011;14477;51.038;4.588;2022-09-27T10:40:43;2.63;;;1.00;;
26908;SDS011;14477;51.038;4.588;2022-09-27T10:43:23;2.33;;;1.00;;
26908;SDS011;14477;51.038;4.588;2022-09-27T10:45:50;2.20;;;1.00;;
26908;SDS011;14477;51.038;4.588;2022-09-27T10:48:26;1.98;;;0.90;;
26908;SDS011;14477;51.038;4.588;2022-09-27T10:50:59;1.85;;;1.10;;
26908;SDS011;14477;51.038;4.588;2022-09-27T10:53:28;3.30;;;1.10;;
26908;SDS011;14477;51.038;4.588;2022-09-27T10:55:55;2.20;;;1.00;;
26908;SDS011;14477;51.038;4.588;2022-09-27T10:58:34;2.85;;;1.00;;
26908;SDS011;14477;51.038;4.588;2022-09-27T11:01:03;2.15;;;1.00;;
26908;SDS011;14477;51.038;4.588;2022-09-27T11:03:35;1.80;;;1.00;;
26908;SDS011;14477;51.038;4.588;2022-09-27T11:08:46;1.80;;;1.07;;
26908;SDS011;14477;51.038;4.588;2022-09-27T11:14:00;2.58;;;0.88;;
26908;SDS011;14477;51.038;4.588;2022-09-27T11:24:56;1.77;;;0.70;;
26908;SDS011;14477;51.038;4.588;2022-09-27T11:30:41;2.75;;;0.70;;
26908;SDS011;14477;51.038;4.588;2022-09-27T11:44:42;1.83;;;0.80;;
26908;SDS011;14477;51.038;4.588;2022-09-27T11:58:12;2.40;;;1.20;;
26908;SDS011;14477;51.038;4.588;2022-09-27T12:00:47;3.22;;;1.35;;
26908;SDS011;14477;51.038;4.588;2022-09-27T12:16:29;2.10;;;0.70;;
26908;SDS011;14477;51.038;4.588;2022-09-27T12:18:56;1.13;;;0.70;;
26908;SDS011;14477;51.038;4.588;2022-09-27T12:21:24;1.67;;;0.63;;
26908;SDS011;14477;51.038;4.588;2022-09-27T12:23:54;1.63;;;0.50;;
26908;SDS011;14477;51.038;4.588;2022-09-27T12:26:25;1.65;;;0.60;;
26908;SDS011;14477;51.038;4.588;2022-09-27T12:29:04;0.90;;;0.57;;
26908;SDS011;14477;51.038;4.588;2022-09-27T12:34:21;1.90;;;0.40;;
26908;SDS011;14477;51.038;4.588;2022-09-27T12:39:51;1.63;;;0.50;;
26908;SDS011;14477;51.038;4.588;2022-09-27T12:42:32;1.80;;;0.60;;
26908;SDS011;14477;51.038;4.588;2022-09-27T12:45:26;0.70;;;0.50;;
26908;SDS011;14477;51.038;4.588;2022-09-27T12:51:20;1.20;;;0.55;;
26908;SDS011;14477;51.038;4.588;2022-09-27T13:07:34;1.90;;;0.88;;
26908;SDS011;14477;51.038;4.588;2022-09-27T13:12:47;1.85;;;0.60;;
26908;SDS011;14477;51.038;4.588;2022-09-27T13:15:18;1.60;;;0.75;;
26908;SDS011;14477;51.038;4.588;2022-09-27T13:17:55;1.58;;;0.60;;
26908;SDS011;14477;51.038;4.588;2022-09-27T13:22:55;1.17;;;0.70;;
26908;SDS011;14477;51.038;4.588;2022-09-27T13:30:52;1.92;;;0.80;;
26908;SDS011;14477;51.038;4.588;2022-09-27T13:36:04;2.03;;;0.97;;
26908;SDS011;14477;51.038;4.588;2022-09-27T13:38:51;1.95;;;0.80;;
26908;SDS011;14477;51.038;4.588;2022-09-27T13:41:25;1.98;;;0.70;;
26908;SDS011;14477;51.038;4.588;2022-09-27T13:44:01;2.00;;;0.70;;
26908;SDS011;14477;51.038;4.588;2022-09-27T13:46:47;4.63;;;1.20;;
26908;SDS011;14477;51.038;4.588;2022-09-27T13:51:53;4.65;;;1.67;;
26908;SDS011;14477;51.038;4.588;2022-09-27T13:57:03;2.13;;;0.80;;
26908;SDS011;14477;51.038;4.588;2022-09-27T13:59:38;1.67;;;0.70;;
26908;SDS011;14477;51.038;4.588;2022-09-27T14:02:23;2.22;;;0.60;;
26908;SDS011;14477;51.038;4.588;2022-09-27T14:04:53;0.88;;;0.60;;
26908;SDS011;14477;51.038;4.588;2022-09-27T14:07:25;0.95;;;0.55;;
26908;SDS011;14477;51.038;4.588;2022-09-27T14:09:59;1.73;;;0.50;;
26908;SDS011;14477;51.038;4.588;2022-09-27T14:12:27;0.75;;;0.50;;
26908;SDS011;14477;51.038;4.588;2022-09-27T14:14:58;1.42;;;0.60;;
26908;SDS011;14477;51.038;4.588;2022-09-27T14:17:25;1.33;;;0.60;;
26908;SDS011;14477;51.038;4.588;2022-09-27T14:19:51;3.00;;;0.70;;
26908;SDS011;14477;51.038;4.588;2022-09-27T14:22:19;1.15;;;0.60;;
26908;SDS011;14477;51.038;4.588;2022-09-27T14:24:47;3.00;;;0.68;;
26908;SDS011;14477;51.038;4.588;2022-09-27T14:27:21;1.42;;;0.50;;
26908;SDS011;14477;51.038;4.588;2022-09-27T14:29:56;4.22;;;0.70;;
26908;SDS011;14477;51.038;4.588;2022-09-27T14:32:26;2.20;;;0.60;;
26908;SDS011;14477;51.038;4.588;2022-09-27T14:35:01;0.82;;;0.55;;
26908;SDS011;14477;51.038;4.588;2022-09-27T14:37:30;0.55;;;0.50;;
26908;SDS011;14477;51.038;4.588;2022-09-27T14:40:05;1.25;;;0.60;;
26908;SDS011;14477;51.038;4.588;2022-09-27T14:42:43;2.13;;;0.55;;
26908;SDS011;14477;51.038;4.588;2022-09-27T14:48:00;1.15;;;0.60;;
26908;SDS011;14477;51.038;4.588;2022-09-27T14:50:41;1.02;;;0.50;;
26908;SDS011;14477;51.038;4.588;2022-09-27T14:53:26;0.70;;;0.50;;
26908;SDS011;14477;51.038;4.588;2022-09-27T14:55:53;1.05;;;0.50;;
26908;SDS011;14477;51.038;4.588;2022-09-27T14:58:20;0.73;;;0.50;;
26908;SDS011;14477;51.038;4.588;2022-09-27T15:00:50;0.95;;;0.50;;
26908;SDS011;14477;51.038;4.588;2022-09-27T15:03:29;1.30;;;0.60;;
26908;SDS011;14477;51.038;4.588;2022-09-27T15:05:59;0.65;;;0.50;;
26908;SDS011;14477;51.038;4.588;2022-09-27T15:08:27;0.52;;;0.43;;
26908;SDS011;14477;51.038;4.588;2022-09-27T15:11:00;1.83;;;0.50;;
26908;SDS011;14477;51.038;4.588;2022-09-27T15:13:29;1.25;;;0.60;;
26908;SDS011;14477;51.038;4.588;2022-09-27T15:15:56;0.75;;;0.55;;
26908;SDS011;14477;51.038;4.588;2022-09-27T15:18:42;1.02;;;0.57;;
26908;SDS011;14477;51.038;4.588;2022-09-27T15:21:30;1.70;;;0.60;;
26908;SDS011;14477;51.038;4.588;2022-09-27T15:24:00;1.17;;;0.60;;
26908;SDS011;14477;51.038;4.588;2022-09-27T15:26:37;2.03;;;1.00;;
26908;SDS011;14477;51.038;4.588;2022-09-27T15:29:17;1.95;;;0.90;;
26908;SDS011;14477;51.038;4.588;2022-09-27T15:31:58;1.27;;;0.85;;
26908;SDS011;14477;51.038;4.588;2022-09-27T15:34:27;0.90;;;0.70;;
26908;SDS011;14477;51.038;4.588;2022-09-27T15:36:54;1.80;;;0.90;;
26908;SDS011;14477;51.038;4.588;2022-09-27T15:39:39;1.10;;;0.82;;
26908;SDS011;14477;51.038;4.588;2022-09-27T15:44:42;2.33;;;1.20;;
26908;SDS011;14477;51.038;4.588;2022-09-27T15:52:51;2.33;;;1.23;;
26908;SDS011;14477;51.038;4.588;2022-09-27T15:55:21;3.35;;;1.17;;
26908;SDS011;14477;51.038;4.588;2022-09-27T15:58:23;2.43;;;1.10;;
26908;SDS011;14477;51.038;4.588;2022-09-27T16:00:51;2.67;;;1.10;;
26908;SDS011;14477;51.038;4.588;2022-09-27T16:03:17;2.85;;;1.00;;
26908;SDS011;14477;51.038;4.588;2022-09-27T16:05:43;2.87;;;1.10;;
26908;SDS011;14477;51.038;4.588;2022-09-27T16:08:09;2.45;;;1.20;;
26908;SDS011;14477;51.038;4.588;2022-09-27T16:10:37;3.40;;;1.77;;
26908;SDS011;14477;51.038;4.588;2022-09-27T16:13:04;3.77;;;1.30;;
26908;SDS011;14477;51.038;4.588;2022-09-27T16:15:30;2.92;;;1.20;;
26908;SDS011;14477;51.038;4.588;2022-09-27T16:17:56;2.20;;;1.17;;
26908;SDS011;14477;51.038;4.588;2022-09-27T16:20:23;1.70;;;0.90;;
26908;SDS011;14477;51.038;4.588;2022-09-27T16:22:50;1.67;;;0.90;;
26908;SDS011;14477;51.038;4.588;2022-09-27T16:25:18;2.15;;;1.10;;
26908;SDS011;14477;51.038;4.588;2022-09-27T16:27:44;3.10;;;1.10;;
26908;SDS011;14477;51.038;4.588;2022-09-27T16:30:11;2.60;;;1.30;;
26908;SDS011;14477;51.038;4.588;2022-09-27T16:32:40;2.95;;;1.00;;
26908;SDS011;14477;51.038;4.588;2022-09-27T16:35:11;3.28;;;1.15;;
26908;SDS011;14477;51.038;4.588;2022-09-27T16:37:37;3.42;;;1.40;;
26908;SDS011;14477;51.038;4.588;2022-09-27T16:40:04;4.30;;;1.50;;
26908;SDS011;14477;51.038;4.588;2022-09-27T16:42:32;4.10;;;1.60;;
26908;SDS011;14477;51.038;4.588;2022-09-27T16:44:58;4.25;;;1.60;;
26908;SDS011;14477;51.038;4.588;2022-09-27T16:47:26;3.75;;;1.60;;
26908;SDS011;14477;51.038;4.588;2022-09-27T16:49:54;4.38;;;1.67;;
26908;SDS011;14477;51.038;4.588;2022-09-27T16:52:38;2.80;;;1.30;;
26908;SDS011;14477;51.038;4.588;2022-09-27T16:55:06;3.93;;;1.50;;
26908;SDS011;14477;51.038;4.588;2022-09-27T16:57:32;4.13;;;1.58;;
26908;SDS011;14477;51.038;4.588;2022-09-27T16:59:59;7.13;;;3.17;;
26908;SDS011;14477;51.038;4.588;2022-09-27T17:02:25;7.57;;;2.83;;
26908;SDS011;14477;51.038;4.588;2022-09-27T17:04:51;5.15;;;2.50;;
26908;SDS011;14477;51.038;4.588;2022-09-27T17:07:18;5.03;;;2.10;;
26908;SDS011;14477;51.038;4.588;2022-09-27T17:09:44;3.17;;;1.80;;
26908;SDS011;14477;51.038;4.588;2022-09-27T17:12:10;3.53;;;1.75;;
26908;SDS011;14477;51.038;4.588;2022-09-27T17:14:37;3.17;;;1.67;;
26908;SDS011;14477;51.038;4.588;2022-09-27T17:17:03;2.87;;;1.50;;
26908;SDS011;14477;51.038;4.588;2022-09-27T17:19:28;2.65;;;1.50;;
26908;SDS011;14477;51.038;4.588;2022-09-27T17:21:56;2.75;;;1.60;;
26908;SDS011;14477;51.038;4.588;2022-09-27T17:24:21;3.40;;;1.80;;
26908;SDS011;14477;51.038;4.588;2022-09-27T17:26:47;3.87;;;1.90;;
26908;SDS011;14477;51.038;4.588;2022-09-27T17:29:13;5.88;;;2.55;;
26908;SDS011;14477;51.038;4.588;2022-09-27T17:31:39;12.48;;;3.97;;
26908;SDS011;14477;51.038;4.588;2022-09-27T17:34:06;12.00;;;4.70;;
26908;SDS011;14477;51.038;4.588;2022-09-27T17:36:36;7.93;;;3.10;;
26908;SDS011;14477;51.038;4.588;2022-09-27T17:39:04;4.85;;;2.22;;
26908;SDS011;14477;51.038;4.588;2022-09-27T17:41:29;4.25;;;1.90;;
26908;SDS011;14477;51.038;4.588;2022-09-27T17:43:58;3.25;;;1.52;;
26908;SDS011;14477;51.038;4.588;2022-09-27T17:46:26;2.63;;;1.30;;
26908;SDS011;14477;51.038;4.588;2022-09-27T17:48:53;3.10;;;1.10;;
26908;SDS011;14477;51.038;4.588;2022-09-27T17:51:38;2.80;;;1.20;;
26908;SDS011;14477;51.038;4.588;2022-09-27T17:54:05;1.75;;;1.10;;
26908;SDS011;14477;51.038;4.588;2022-09-27T17:56:32;2.13;;;1.15;;
26908;SDS011;14477;51.038;4.588;2022-09-27T17:59:05;1.90;;;1.10;;
26908;SDS011;14477;51.038;4.588;2022-09-27T18:01:31;2.30;;;1.38;;
26908;SDS011;14477;51.038;4.588;2022-09-27T18:03:58;2.20;;;1.20;;